createdAt,value
2019-03-02T00:02:28.532Z,101314.98
2019-03-02T00:04:57.909Z,101318.45
2019-03-02T00:07:27.403Z,101319.84
2019-03-02T00:09:56.755Z,101319.92
2019-03-02T00:12:28.755Z,101319.13
2019-03-02T00:14:58.103Z,101319.92
2019-03-02T00:17:27.536Z,101319.92
2019-03-02T00:19:56.903Z,101314.09
2019-03-02T00:22:28.019Z,101314.72
2019-03-02T00:24:59.177Z,101315.83
2019-03-02T00:27:29.007Z,101311.33
2019-03-02T00:29:58.679Z,101316.54
2019-03-02T00:32:29.058Z,101313.38
2019-03-02T00:34:58.734Z,101306.88
2019-03-02T00:37:29.593Z,101307.01
2019-03-02T00:39:59.483Z,101305.27
2019-03-02T00:42:28.898Z,101298.81
2019-03-02T00:44:58.711Z,101298.41
2019-03-02T00:47:28.057Z,101295.61
2019-03-02T00:50:00.953Z,101297.26
2019-03-02T00:52:28.776Z,101300.11
2019-03-02T00:54:58.688Z,101292.73
2019-03-02T00:57:28.032Z,101291.25
2019-03-02T00:59:57.716Z,101296.52
2019-03-02T01:02:27.176Z,101294.41
2019-03-02T01:04:57.888Z,101293.22
2019-03-02T01:07:27.827Z,101302.65
2019-03-02T01:09:57.489Z,101284.62
2019-03-02T01:12:26.848Z,101284.62
2019-03-02T01:14:56.740Z,101298.67
2019-03-02T01:17:27.045Z,101290.27
2019-03-02T01:19:57.441Z,101294.27
2019-03-02T01:22:27.172Z,101285.41
2019-03-02T01:24:56.836Z,101282.66
2019-03-02T01:27:26.564Z,101272.91
2019-03-02T01:29:56.223Z,101271.25
2019-03-02T01:32:25.670Z,101272.33
2019-03-02T01:34:55.044Z,101271.37
2019-03-02T01:37:24.506Z,101272.84
2019-03-02T01:39:54.908Z,101271.51
2019-03-02T01:42:25.884Z,101272.92
2019-03-02T01:44:56.217Z,101272.13
2019-03-02T01:47:25.704Z,101270.92
2019-03-02T01:49:55.105Z,101265.67
2019-03-02T01:52:24.539Z,101261.75
2019-03-02T01:54:55.834Z,101268.88
2019-03-02T01:57:26.279Z,101264.81
2019-03-02T01:59:55.934Z,101262.59
2019-03-02T02:02:25.911Z,101256.24
2019-03-02T02:04:57.479Z,101256.24
2019-03-02T02:07:26.618Z,101250.28
2019-03-02T02:09:56.268Z,101245.74
2019-03-02T02:12:28.834Z,101246.23
2019-03-02T02:14:56.949Z,101237.73
2019-03-02T02:17:26.311Z,101240.19
2019-03-02T02:19:55.945Z,101233.91
2019-03-02T02:22:25.645Z,101234.22
2019-03-02T02:24:56.768Z,101225.19
2019-03-02T02:27:26.542Z,101219.84
2019-03-02T02:29:56.518Z,101212.95
2019-03-02T02:32:25.923Z,101206.13
2019-03-02T02:34:56.515Z,101207.25
2019-03-02T02:37:27.088Z,101210.63
2019-03-02T02:39:56.730Z,101201.67
2019-03-02T02:42:26.358Z,101201.81
2019-03-02T02:44:56.005Z,101201.05
2019-03-02T02:47:25.732Z,101203.23
2019-03-02T02:49:55.253Z,101202.61
2019-03-02T02:52:28.232Z,101200.66
2019-03-02T02:54:57.719Z,101191.45
2019-03-02T02:57:27.452Z,101192.92
2019-03-02T02:59:57.083Z,101193.01
2019-03-02T03:02:26.443Z,101192.69
2019-03-02T03:04:56.260Z,101184.11
2019-03-02T03:07:26.932Z,101190.33
2019-03-02T03:09:57.912Z,101183.66
2019-03-02T03:12:27.272Z,101181.75
2019-03-02T03:14:58.416Z,101182.95
2019-03-02T03:17:32.422Z,101186.55
2019-03-02T03:20:00.486Z,101181.61
2019-03-02T03:22:29.977Z,101182.33
2019-03-02T03:24:59.629Z,101181.70
2019-03-02T03:27:28.998Z,101179.17
2019-03-02T03:29:58.702Z,101176.13
2019-03-02T03:32:28.075Z,101179.25
2019-03-02T03:34:57.421Z,101162.92
2019-03-02T03:37:27.039Z,101174.94
2019-03-02T03:39:56.388Z,101175.73
2019-03-02T03:42:26.534Z,101184.14
2019-03-02T03:44:59.799Z,101177.83
2019-03-02T03:47:27.803Z,101178.00
2019-03-02T03:49:57.279Z,101186.11
2019-03-02T03:52:26.664Z,101180.36
2019-03-02T03:54:56.485Z,101181.30
2019-03-02T03:57:26.033Z,101176.50
2019-03-02T03:59:58.802Z,101181.52
2019-03-02T04:02:31.052Z,101178.45
2019-03-02T04:04:57.548Z,101169.82
2019-03-02T04:07:27.119Z,101169.91
2019-03-02T04:09:56.528Z,101168.00
2019-03-02T04:12:26.151Z,101162.44
2019-03-02T04:14:56.868Z,101166.80
2019-03-02T04:17:26.630Z,101162.66
2019-03-02T04:19:57.240Z,101165.73
2019-03-02T04:22:26.605Z,101159.68
2019-03-02T04:24:56.250Z,101166.89
2019-03-02T04:27:25.619Z,101162.03
2019-03-02T04:29:56.647Z,101159.42
2019-03-02T04:32:27.838Z,101162.66
2019-03-02T04:34:58.716Z,101154.84
2019-03-02T04:37:28.283Z,101162.05
2019-03-02T04:39:57.708Z,101165.16
2019-03-02T04:42:27.265Z,101158.89
2019-03-02T04:44:56.613Z,101158.58
2019-03-02T04:47:27.527Z,101157.50
2019-03-02T04:49:57.650Z,101160.84
2019-03-02T04:52:27.349Z,101157.31
2019-03-02T04:54:56.753Z,101156.83
2019-03-02T04:57:29.171Z,101160.75
2019-03-02T04:59:58.615Z,101152.69
2019-03-02T05:02:28.276Z,101158.80
2019-03-02T05:04:57.669Z,101148.46
2019-03-02T05:07:30.173Z,101148.46
2019-03-02T05:09:58.383Z,101147.04
2019-03-02T05:12:27.752Z,101158.97
2019-03-02T05:14:57.638Z,101151.36
2019-03-02T05:17:27.302Z,101149.17
2019-03-02T05:19:56.924Z,101149.17
2019-03-02T05:22:26.394Z,101142.33
2019-03-02T05:24:55.790Z,101143.66
2019-03-02T05:27:25.376Z,101145.93
2019-03-02T05:29:55.716Z,101140.28
2019-03-02T05:32:25.390Z,101144.28
2019-03-02T05:34:56.134Z,101140.28
2019-03-02T05:37:25.509Z,101137.07
2019-03-02T05:39:55.746Z,101140.19
2019-03-02T05:42:25.672Z,101138.77
2019-03-02T05:44:55.798Z,101137.30
2019-03-02T05:47:25.467Z,101140.05
2019-03-02T05:49:56.010Z,101130.14
2019-03-02T05:52:26.510Z,101134.94
2019-03-02T05:54:55.894Z,101122.13
2019-03-02T05:57:25.494Z,101126.22
2019-03-02T05:59:58.644Z,101116.34
2019-03-02T06:02:26.861Z,101123.86
2019-03-02T06:04:56.977Z,101114.30
2019-03-02T06:07:27.571Z,101120.26
2019-03-02T06:09:56.942Z,101126.84
2019-03-02T06:12:26.817Z,101129.28
2019-03-02T06:14:56.175Z,101129.69
2019-03-02T06:17:25.679Z,101125.77
2019-03-02T06:19:59.292Z,101121.28
2019-03-02T06:22:27.035Z,101127.47
2019-03-02T06:24:56.691Z,101122.75
2019-03-02T06:27:26.043Z,101125.65
2019-03-02T06:29:56.027Z,101126.23
2019-03-02T06:32:26.044Z,101125.88
2019-03-02T06:34:57.120Z,101133.40
2019-03-02T06:37:26.998Z,101133.80
2019-03-02T06:39:56.664Z,101135.98
2019-03-02T06:42:26.013Z,101130.14
2019-03-02T06:44:56.133Z,101126.64
2019-03-02T06:47:25.781Z,101126.13
2019-03-02T06:49:59.144Z,101120.31
2019-03-02T06:52:27.512Z,101119.23
2019-03-02T06:54:57.034Z,101131.02
2019-03-02T06:57:26.722Z,101122.07
2019-03-02T06:59:58.012Z,101130.94
2019-03-02T07:02:27.361Z,101124.20
2019-03-02T07:04:58.061Z,101126.88
2019-03-02T07:07:27.710Z,101127.33
2019-03-02T07:09:57.132Z,101130.39
2019-03-02T07:12:26.733Z,101120.73
2019-03-02T07:14:57.165Z,101125.85
2019-03-02T07:17:34.153Z,101125.45
2019-03-02T07:20:06.686Z,101125.99
2019-03-02T07:22:36.044Z,101123.47
2019-03-02T07:25:06.376Z,101121.67
2019-03-02T07:27:35.802Z,101117.67
2019-03-02T07:30:08.472Z,101122.38
2019-03-02T07:32:37.994Z,101120.91
2019-03-02T07:35:08.849Z,101126.16
2019-03-02T07:37:40.558Z,101119.40
2019-03-02T07:40:14.828Z,101120.67
2019-03-02T07:42:44.201Z,101114.77
2019-03-02T07:45:17.156Z,101114.77
2019-03-02T07:47:46.527Z,101113.43
2019-03-02T07:50:16.401Z,101117.92
2019-03-02T07:52:46.004Z,101115.39
2019-03-02T07:55:19.088Z,101114.23
2019-03-02T07:57:48.244Z,101122.78
2019-03-02T08:00:22.088Z,101119.09
2019-03-02T08:02:51.428Z,101120.82
2019-03-02T08:05:21.395Z,101118.06
2019-03-02T08:07:51.099Z,101116.67
2019-03-02T08:10:20.459Z,101113.61
2019-03-02T08:12:50.131Z,101108.17
2019-03-02T08:15:25.896Z,101108.66
2019-03-02T08:17:56.711Z,101116.59
2019-03-02T08:20:26.328Z,101112.80
2019-03-02T08:22:56.439Z,101109.36
2019-03-02T08:25:26.092Z,101118.38
2019-03-02T08:27:56.401Z,101115.42
2019-03-02T08:30:26.101Z,101113.91
2019-03-02T08:32:57.829Z,101112.88
2019-03-02T08:35:27.535Z,101104.08
2019-03-02T08:37:57.502Z,101100.72
2019-03-02T08:40:27.187Z,101103.21
2019-03-02T08:42:56.577Z,101104.22
2019-03-02T08:45:27.688Z,101110.11
2019-03-02T08:47:57.520Z,101109.02
2019-03-02T08:50:27.204Z,101103.49
2019-03-02T08:52:56.640Z,101102.00
2019-03-02T08:55:29.841Z,101107.75
2019-03-02T08:57:58.638Z,101093.73
2019-03-02T09:00:29.601Z,101095.77
2019-03-02T09:03:00.449Z,101087.22
2019-03-02T09:05:43.312Z,101087.22
2019-03-02T09:08:03.111Z,101085.87
2019-03-02T09:10:32.487Z,101082.05
2019-03-02T09:13:02.505Z,101075.31
2019-03-02T09:15:32.606Z,101074.86
2019-03-02T09:18:04.529Z,101077.96
2019-03-02T09:20:35.689Z,101078.69
2019-03-02T09:23:06.014Z,101069.41
2019-03-02T09:25:35.466Z,101062.78
2019-03-02T09:28:04.886Z,101064.73
2019-03-02T09:30:35.868Z,101062.91
2019-03-02T09:33:05.518Z,101061.41
2019-03-02T09:35:35.750Z,101068.13
2019-03-02T09:38:05.391Z,101074.83
2019-03-02T09:40:34.780Z,101073.87
2019-03-02T09:43:04.710Z,101072.52
2019-03-02T09:45:34.377Z,101075.23
2019-03-02T09:48:03.727Z,101071.97
2019-03-02T09:50:33.449Z,101068.34
2019-03-02T09:53:02.841Z,101069.73
2019-03-02T09:55:32.380Z,101069.67
2019-03-02T09:58:02.355Z,101067.72
2019-03-02T10:00:31.906Z,101062.94
2019-03-02T10:03:01.617Z,101067.81
2019-03-02T10:05:31.593Z,101063.17
2019-03-02T10:08:01.300Z,101061.27
2019-03-02T10:10:33.092Z,101060.66
2019-03-02T10:13:02.028Z,101052.25
2019-03-02T10:15:32.575Z,101059.87
2019-03-02T10:18:02.232Z,101055.80
2019-03-02T10:20:31.602Z,101060.90
2019-03-02T10:23:02.030Z,101057.22
2019-03-02T10:25:32.986Z,101054.68
2019-03-02T10:28:04.833Z,101050.45
2019-03-02T10:30:34.079Z,101055.91
2019-03-02T10:33:03.745Z,101060.77
2019-03-02T10:35:33.127Z,101049.83
2019-03-02T10:38:03.079Z,101057.44
2019-03-02T10:40:32.671Z,101050.83
2019-03-02T10:43:02.325Z,101051.29
2019-03-02T10:45:33.710Z,101047.45
2019-03-02T10:48:03.501Z,101053.83
2019-03-02T10:50:32.876Z,101045.27
2019-03-02T10:53:02.538Z,101053.57
2019-03-02T10:55:31.918Z,101048.92
2019-03-02T10:58:02.322Z,101047.84
2019-03-02T11:00:31.848Z,101047.84
2019-03-02T11:03:11.178Z,101054.67
2019-03-02T11:05:42.541Z,101039.47
2019-03-02T11:08:13.926Z,101039.47
2019-03-02T11:10:45.245Z,101048.69
2019-03-02T11:13:29.144Z,101046.16
2019-03-02T11:16:01.637Z,101046.61
2019-03-02T11:18:35.495Z,101048.04
2019-03-02T11:21:22.873Z,101039.94
2019-03-02T11:23:54.640Z,101029.95
2019-03-02T11:26:29.535Z,101021.13
2019-03-02T11:29:17.688Z,101026.87
2019-03-02T11:31:51.399Z,101025.73
2019-03-02T11:34:22.401Z,101028.92
2019-03-02T11:36:56.233Z,101016.02
2019-03-02T11:39:36.139Z,100998.94
2019-03-02T11:42:10.305Z,100998.94
2019-03-02T11:44:43.250Z,100993.91
2019-03-02T11:47:14.570Z,100993.91
2019-03-02T11:49:45.569Z,101006.16
2019-03-02T11:52:28.529Z,100995.22
2019-03-02T11:55:03.994Z,100990.84
2019-03-02T11:57:39.460Z,100984.27
2019-03-02T12:00:13.786Z,100984.27
2019-03-02T12:02:44.817Z,100980.59
2019-03-02T12:05:32.251Z,100977.11
2019-03-02T12:08:17.937Z,100969.63
2019-03-02T12:11:07.062Z,100970.27
2019-03-02T12:13:42.007Z,100970.59
2019-03-02T12:16:16.046Z,100970.59
2019-03-02T12:18:54.191Z,100971.73
2019-03-02T12:21:28.439Z,100962.78
2019-03-02T12:24:14.986Z,100974.04
2019-03-02T12:26:50.184Z,100970.27
2019-03-02T12:29:21.486Z,100965.12
2019-03-02T12:31:58.884Z,100951.31
2019-03-02T12:34:34.491Z,100951.31
2019-03-02T12:37:05.697Z,100950.77
2019-03-02T12:39:43.082Z,100944.48
2019-03-02T12:42:17.329Z,100944.48
2019-03-02T12:45:01.806Z,100948.55
2019-03-02T12:47:49.784Z,100948.55
2019-03-02T12:50:33.144Z,100946.29
2019-03-02T12:53:04.180Z,100940.61
2019-03-02T12:55:37.037Z,100930.95
2019-03-02T12:58:14.128Z,100930.95
2019-03-02T13:01:03.871Z,100927.80
2019-03-02T13:03:51.558Z,100922.16
2019-03-02T13:06:25.824Z,100914.49
2019-03-02T13:09:03.559Z,100914.49
2019-03-02T13:11:39.797Z,100916.80
2019-03-02T13:14:17.150Z,100919.33
2019-03-02T13:16:48.159Z,100916.72
2019-03-02T13:19:22.956Z,100922.39
2019-03-02T13:22:00.946Z,100918.33
2019-03-02T13:24:35.020Z,100918.33
2019-03-02T13:27:12.614Z,100915.80
2019-03-02T13:32:40.065Z,100902.75
2019-03-02T13:35:19.977Z,100898.84
2019-03-02T13:38:02.973Z,100891.86
2019-03-02T13:40:34.200Z,100891.86
2019-03-02T13:43:05.231Z,100889.75
2019-03-02T13:45:48.329Z,100887.14
2019-03-02T13:48:22.179Z,100881.46
2019-03-02T13:51:08.195Z,100870.03
2019-03-02T13:53:59.222Z,100867.57
2019-03-02T13:56:45.085Z,100864.89
2019-03-02T13:59:30.934Z,100856.95
2019-03-02T14:02:16.462Z,100858.68
2019-03-02T14:04:56.438Z,100856.95
2019-03-02T14:07:43.429Z,100859.18
2019-03-02T14:10:20.552Z,100851.39
2019-03-02T14:12:54.358Z,100845.44
2019-03-02T14:15:31.672Z,100853.11
2019-03-02T14:18:13.154Z,100840.20
2019-03-02T14:20:44.164Z,100839.09
2019-03-02T14:23:18.211Z,100834.18
2019-03-02T14:25:51.884Z,100832.03
2019-03-02T14:31:19.801Z,100812.62
2019-03-02T14:34:07.159Z,100817.36
2019-03-02T14:36:38.029Z,100809.52
2019-03-02T14:39:09.789Z,100818.98
2019-03-02T14:41:41.136Z,100818.98
2019-03-02T14:44:15.188Z,100810.02
2019-03-02T14:46:48.895Z,100807.37
2019-03-02T14:49:28.093Z,100807.31
2019-03-02T14:52:11.718Z,100808.38
2019-03-02T14:54:43.335Z,100813.03
2019-03-02T14:57:25.751Z,100809.91
2019-03-02T14:59:59.420Z,100815.15
2019-03-02T15:02:49.005Z,100801.97
2019-03-02T15:05:26.545Z,100801.77
2019-03-02T15:08:00.370Z,100799.72
2019-03-02T15:10:31.345Z,100795.48
2019-03-02T15:13:14.379Z,100801.45
2019-03-02T15:16:03.819Z,100798.45
2019-03-02T15:18:47.443Z,100795.71
2019-03-02T15:21:18.744Z,100784.08
2019-03-02T15:23:49.761Z,100778.32
2019-03-02T15:26:20.791Z,100771.98
2019-03-02T15:28:52.084Z,100770.63
2019-03-02T15:31:23.305Z,100764.66
2019-03-02T15:34:03.337Z,100768.95
2019-03-02T15:36:47.825Z,100765.04
2019-03-02T15:39:35.614Z,100758.07
2019-03-02T15:42:06.989Z,100760.33
2019-03-02T15:44:54.746Z,100756.68
2019-03-02T15:47:31.630Z,100751.33
2019-03-02T15:50:20.637Z,100742.89
2019-03-02T15:52:54.320Z,100747.17
2019-03-02T15:55:37.331Z,100749.23
2019-03-02T15:58:08.900Z,100743.23
2019-03-02T16:00:50.544Z,100751.98
2019-03-02T16:03:34.128Z,100746.43
2019-03-02T16:06:19.660Z,100743.28
2019-03-02T16:09:01.307Z,100727.59
2019-03-02T16:11:45.607Z,100727.59
2019-03-02T16:14:20.326Z,100727.38
2019-03-02T16:17:07.737Z,100725.31
2019-03-02T16:19:47.260Z,100722.88
2019-03-02T16:22:24.682Z,100718.89
2019-03-02T16:25:11.568Z,100722.48
2019-03-02T16:27:42.623Z,100722.48
2019-03-02T16:30:16.213Z,100719.16
2019-03-02T16:32:47.507Z,100717.69
2019-03-02T16:35:27.525Z,100728.66
2019-03-02T16:38:01.605Z,100720.80
2019-03-02T16:40:32.621Z,100720.97
2019-03-02T16:43:03.732Z,100723.66
2019-03-02T16:45:34.744Z,100723.28
2019-03-02T16:48:29.000Z,100715.72
2019-03-02T16:51:05.749Z,100721.64
2019-03-02T16:53:53.613Z,100724.75
2019-03-02T16:56:28.668Z,100714.84
2019-03-02T16:59:08.611Z,100714.84
2019-03-02T17:01:57.832Z,100716.89
2019-03-02T17:04:47.494Z,100718.48
2019-03-02T17:07:22.261Z,100712.89
2019-03-02T17:10:00.448Z,100707.70
2019-03-02T17:12:34.740Z,100713.58
2019-03-02T17:15:18.977Z,100713.58
2019-03-02T17:17:55.501Z,100710.72
2019-03-02T17:20:26.723Z,100704.90
2019-03-02T17:23:23.225Z,100704.90
2019-03-02T17:25:56.629Z,100711.79
2019-03-02T17:28:39.461Z,100713.92
2019-03-02T17:31:10.622Z,100723.89
2019-03-02T17:33:44.640Z,100719.05
2019-03-02T17:36:32.231Z,100719.05
2019-03-02T17:39:10.063Z,100724.92
2019-03-02T17:41:56.629Z,100713.92
2019-03-02T17:44:46.445Z,100716.31
2019-03-02T17:47:22.955Z,100716.31
2019-03-02T17:50:04.169Z,100721.68
2019-03-02T17:52:43.177Z,100714.38
2019-03-02T17:55:15.576Z,100712.66
2019-03-02T17:57:54.602Z,100691.88
2019-03-02T18:00:34.569Z,100693.86
2019-03-02T18:03:06.544Z,100693.86
2019-03-02T18:08:29.107Z,100691.56
2019-03-02T18:11:00.359Z,100691.56
2019-03-02T18:13:43.252Z,100680.61
2019-03-02T18:46:49.369Z,100661.67
2019-03-02T20:40:54.075Z,100583.80
2019-03-02T20:43:23.825Z,100568.19
2019-03-02T20:45:53.237Z,100566.26
2019-03-02T20:48:42.216Z,100559.47
2019-03-02T20:51:11.919Z,100559.47
2019-03-02T20:53:41.292Z,100558.16
2019-03-02T20:56:11.055Z,100554.48
2019-03-02T20:58:41.039Z,100542.89
2019-03-02T21:01:11.344Z,100541.34
2019-03-02T21:04:00.246Z,100538.66
2019-03-02T21:06:31.229Z,100538.66
2019-03-02T21:09:00.965Z,100536.88
2019-03-02T21:11:31.971Z,100536.13
2019-03-02T21:14:01.402Z,100540.28
2019-03-02T21:16:30.878Z,100540.53
2019-03-02T21:19:00.544Z,100535.80
2019-03-02T21:21:30.072Z,100534.45
2019-03-02T21:23:59.517Z,100526.98
2019-03-02T21:26:29.016Z,100526.64
2019-03-02T21:28:59.323Z,100526.64
2019-03-02T21:31:28.907Z,100516.27
2019-03-02T21:33:59.486Z,100520.46
2019-03-02T21:36:29.044Z,100520.08
2019-03-02T21:38:59.303Z,100519.86
2019-03-02T21:41:28.970Z,100516.45
2019-03-02T21:43:59.273Z,100514.02
2019-03-02T21:46:28.931Z,100506.73
2019-03-02T21:48:59.385Z,100506.73
2019-03-02T21:51:29.078Z,100504.44
2019-03-02T21:53:59.410Z,100495.56
2019-03-02T21:56:48.491Z,100506.20
2019-03-02T21:59:17.982Z,100506.20
2019-03-02T22:01:47.411Z,100499.14
2019-03-02T22:04:17.121Z,100498.41
2019-03-02T22:06:46.802Z,100497.59
2019-03-02T22:09:16.751Z,100494.64
2019-03-02T22:11:46.398Z,100490.98
2019-03-02T22:14:16.118Z,100484.26
2019-03-02T22:16:45.529Z,100488.29
2019-03-02T22:19:15.242Z,100486.47
2019-03-02T22:21:44.650Z,100487.19
2019-03-02T22:24:14.361Z,100479.25
2019-03-02T22:26:44.055Z,100483.16
2019-03-02T22:29:13.477Z,100484.73
2019-03-02T22:31:43.158Z,100483.67
2019-03-02T22:34:12.570Z,100474.63
2019-03-02T22:36:41.961Z,100476.07
2019-03-02T22:39:11.539Z,100468.00
2019-03-02T22:41:41.274Z,100466.91
2019-03-02T22:44:10.736Z,100466.91
2019-03-02T22:46:40.194Z,100461.16
2019-03-02T22:49:28.697Z,100461.16
2019-03-02T22:51:59.615Z,100462.76
2019-03-02T22:54:29.280Z,100462.76
2019-03-02T22:56:59.615Z,100478.91
2019-03-02T22:59:29.206Z,100478.17
2019-03-02T23:05:03.906Z,100474.02
2019-03-02T23:07:33.292Z,100466.08
2019-03-02T23:10:02.717Z,100470.59
